sensor_id;sensor_type;location;lat;lon;timestamp;temperature;humidity
8537;DHT22;4306;50.210;10.628;2023-07-28T00:01:43;17.10;99.90
8537;DHT22;4306;50.210;10.628;2023-07-28T00:04:09;17.10;99.90
8537;DHT22;4306;50.210;10.628;2023-07-28T00:06:36;17.10;99.90
8537;DHT22;4306;50.210;10.628;2023-07-28T00:09:03;17.10;99.90
8537;DHT22;4306;50.210;10.628;2023-07-28T00:11:30;17.10;99.90
8537;DHT22;4306;50.210;10.628;2023-07-28T00:13:58;17.00;99.90
8537;DHT22;4306;50.210;10.628;2023-07-28T00:16:25;17.00;99.90
8537;DHT22;4306;50.210;10.628;2023-07-28T00:18:52;17.00;99.90
8537;DHT22;4306;50.210;10.628;2023-07-28T00:21:19;17.10;99.90
8537;DHT22;4306;50.210;10.628;2023-07-28T00:23:45;17.10;99.90
8537;DHT22;4306;50.210;10.628;2023-07-28T00:26:12;17.10;99.90
8537;DHT22;4306;50.210;10.628;2023-07-28T00:28:39;17.00;99.90
8537;DHT22;4306;50.210;10.628;2023-07-28T00:31:07;17.10;99.90
8537;DHT22;4306;50.210;10.628;2023-07-28T00:33:34;17.10;99.90
8537;DHT22;4306;50.210;10.628;2023-07-28T00:36:01;17.10;99.90
8537;DHT22;4306;50.210;10.628;2023-07-28T00:38:28;17.10;99.90
8537;DHT22;4306;50.210;10.628;2023-07-28T00:40:54;17.10;99.90
8537;DHT22;4306;50.210;10.628;2023-07-28T00:43:21;17.10;99.90
8537;DHT22;4306;50.210;10.628;2023-07-28T00:45:48;17.20;99.90
8537;DHT22;4306;50.210;10.628;2023-07-28T00:48:17;17.10;99.90
8537;DHT22;4306;50.210;10.628;2023-07-28T00:50:47;17.20;99.90
8537;DHT22;4306;50.210;10.628;2023-07-28T00:53:15;17.10;99.90
8537;DHT22;4306;50.210;10.628;2023-07-28T00:55:42;17.10;99.90
8537;DHT22;4306;50.210;10.628;2023-07-28T00:58:09;17.10;99.90
8537;DHT22;4306;50.210;10.628;2023-07-28T01:00:36;17.10;99.90
8537;DHT22;4306;50.210;10.628;2023-07-28T01:03:03;17.20;99.90
8537;DHT22;4306;50.210;10.628;2023-07-28T01:05:38;17.10;99.90
8537;DHT22;4306;50.210;10.628;2023-07-28T01:08:11;17.20;99.90
8537;DHT22;4306;50.210;10.628;2023-07-28T01:10:39;17.20;99.90
8537;DHT22;4306;50.210;10.628;2023-07-28T01:13:06;17.10;99.90
8537;DHT22;4306;50.210;10.628;2023-07-28T01:15:33;17.20;99.90
8537;DHT22;4306;50.210;10.628;2023-07-28T01:17:59;17.20;99.90
8537;DHT22;4306;50.210;10.628;2023-07-28T01:20:30;17.20;99.90
8537;DHT22;4306;50.210;10.628;2023-07-28T01:23:16;17.20;99.90
8537;DHT22;4306;50.210;10.628;2023-07-28T01:25:53;17.20;99.90
8537;DHT22;4306;50.210;10.628;2023-07-28T01:28:23;17.10;99.90
8537;DHT22;4306;50.210;10.628;2023-07-28T01:30:50;17.20;99.90
8537;DHT22;4306;50.210;10.628;2023-07-28T01:33:17;17.20;99.90
8537;DHT22;4306;50.210;10.628;2023-07-28T01:35:44;17.20;99.90
8537;DHT22;4306;50.210;10.628;2023-07-28T01:38:11;17.10;99.90
8537;DHT22;4306;50.210;10.628;2023-07-28T01:40:38;17.20;99.90
8537;DHT22;4306;50.210;10.628;2023-07-28T01:43:05;17.20;99.90
8537;DHT22;4306;50.210;10.628;2023-07-28T01:45:34;17.10;99.90
8537;DHT22;4306;50.210;10.628;2023-07-28T01:48:00;17.20;99.90
8537;DHT22;4306;50.210;10.628;2023-07-28T01:50:27;17.10;99.90
8537;DHT22;4306;50.210;10.628;2023-07-28T01:52:55;17.10;99.90
8537;DHT22;4306;50.210;10.628;2023-07-28T01:55:22;17.10;99.90
8537;DHT22;4306;50.210;10.628;2023-07-28T01:57:55;17.10;99.90
8537;DHT22;4306;50.210;10.628;2023-07-28T02:00:22;17.20;99.90
8537;DHT22;4306;50.210;10.628;2023-07-28T02:02:51;17.10;99.90
8537;DHT22;4306;50.210;10.628;2023-07-28T02:05:18;17.10;99.90
8537;DHT22;4306;50.210;10.628;2023-07-28T02:07:46;17.10;99.90
8537;DHT22;4306;50.210;10.628;2023-07-28T02:10:13;17.10;99.90
8537;DHT22;4306;50.210;10.628;2023-07-28T02:12:40;17.00;99.90
8537;DHT22;4306;50.210;10.628;2023-07-28T02:15:07;17.10;99.90
8537;DHT22;4306;50.210;10.628;2023-07-28T02:17:34;17.10;99.90
8537;DHT22;4306;50.210;10.628;2023-07-28T02:20:03;17.00;99.90
8537;DHT22;4306;50.210;10.628;2023-07-28T02:22:30;17.10;99.90
8537;DHT22;4306;50.210;10.628;2023-07-28T02:24:57;17.00;99.90
8537;DHT22;4306;50.210;10.628;2023-07-28T02:27:27;17.00;99.90
8537;DHT22;4306;50.210;10.628;2023-07-28T02:29:54;17.00;99.90
8537;DHT22;4306;50.210;10.628;2023-07-28T02:32:21;17.00;99.90
8537;DHT22;4306;50.210;10.628;2023-07-28T02:34:48;17.00;99.90
8537;DHT22;4306;50.210;10.628;2023-07-28T02:37:16;17.00;99.90
8537;DHT22;4306;50.210;10.628;2023-07-28T02:39:43;17.00;99.90
8537;DHT22;4306;50.210;10.628;2023-07-28T02:42:10;17.00;99.90
8537;DHT22;4306;50.210;10.628;2023-07-28T02:44:37;17.00;99.90
8537;DHT22;4306;50.210;10.628;2023-07-28T02:47:05;16.90;99.90
8537;DHT22;4306;50.210;10.628;2023-07-28T02:49:32;17.00;99.90
8537;DHT22;4306;50.210;10.628;2023-07-28T02:51:59;17.00;99.90
8537;DHT22;4306;50.210;10.628;2023-07-28T02:54:27;17.00;99.90
8537;DHT22;4306;50.210;10.628;2023-07-28T02:56:54;17.00;99.90
8537;DHT22;4306;50.210;10.628;2023-07-28T02:59:21;17.00;99.90
8537;DHT22;4306;50.210;10.628;2023-07-28T03:01:48;17.00;99.90
8537;DHT22;4306;50.210;10.628;2023-07-28T03:04:17;17.00;99.90
8537;DHT22;4306;50.210;10.628;2023-07-28T03:06:45;17.00;99.90
8537;DHT22;4306;50.210;10.628;2023-07-28T03:09:12;16.90;99.90
8537;DHT22;4306;50.210;10.628;2023-07-28T03:11:41;16.90;99.90
8537;DHT22;4306;50.210;10.628;2023-07-28T03:14:08;16.90;99.90
8537;DHT22;4306;50.210;10.628;2023-07-28T03:16:35;16.90;99.90
8537;DHT22;4306;50.210;10.628;2023-07-28T03:19:01;16.90;99.90
8537;DHT22;4306;50.210;10.628;2023-07-28T03:21:29;16.90;99.90
8537;DHT22;4306;50.210;10.628;2023-07-28T03:23:56;16.90;99.90
8537;DHT22;4306;50.210;10.628;2023-07-28T03:26:23;16.80;99.90
8537;DHT22;4306;50.210;10.628;2023-07-28T03:28:51;16.90;99.90
8537;DHT22;4306;50.210;10.628;2023-07-28T03:31:18;16.80;99.90
8537;DHT22;4306;50.210;10.628;2023-07-28T03:33:45;16.80;99.90
8537;DHT22;4306;50.210;10.628;2023-07-28T03:36:12;16.80;99.90
8537;DHT22;4306;50.210;10.628;2023-07-28T03:38:39;16.90;99.90
8537;DHT22;4306;50.210;10.628;2023-07-28T03:41:06;16.80;99.90
8537;DHT22;4306;50.210;10.628;2023-07-28T03:43:33;16.90;99.90
8537;DHT22;4306;50.210;10.628;2023-07-28T03:46:02;16.90;99.90
8537;DHT22;4306;50.210;10.628;2023-07-28T03:48:29;16.90;99.90
8537;DHT22;4306;50.210;10.628;2023-07-28T03:50:55;16.80;99.90
8537;DHT22;4306;50.210;10.628;2023-07-28T03:53:22;16.90;99.90
8537;DHT22;4306;50.210;10.628;2023-07-28T03:55:49;16.80;99.90
8537;DHT22;4306;50.210;10.628;2023-07-28T03:58:16;16.80;99.90
8537;DHT22;4306;50.210;10.628;2023-07-28T04:00:43;16.90;99.90
8537;DHT22;4306;50.210;10.628;2023-07-28T04:03:10;16.80;99.90
8537;DHT22;4306;50.210;10.628;2023-07-28T04:05:37;16.90;99.90
8537;DHT22;4306;50.210;10.628;2023-07-28T04:08:04;16.80;99.90
8537;DHT22;4306;50.210;10.628;2023-07-28T04:10:31;16.90;99.90
8537;DHT22;4306;50.210;10.628;2023-07-28T04:12:58;16.90;99.90
8537;DHT22;4306;50.210;10.628;2023-07-28T04:15:25;16.90;99.90
8537;DHT22;4306;50.210;10.628;2023-07-28T04:17:52;16.90;99.90
8537;DHT22;4306;50.210;10.628;2023-07-28T04:20:20;16.90;99.90
8537;DHT22;4306;50.210;10.628;2023-07-28T04:22:47;16.90;99.90
8537;DHT22;4306;50.210;10.628;2023-07-28T04:25:14;16.90;99.90
8537;DHT22;4306;50.210;10.628;2023-07-28T04:27:41;16.90;99.90
8537;DHT22;4306;50.210;10.628;2023-07-28T04:30:08;16.90;99.90
8537;DHT22;4306;50.210;10.628;2023-07-28T04:32:35;16.90;99.90
8537;DHT22;4306;50.210;10.628;2023-07-28T04:35:02;16.90;99.90
8537;DHT22;4306;50.210;10.628;2023-07-28T04:37:30;16.90;99.90
8537;DHT22;4306;50.210;10.628;2023-07-28T04:39:57;16.90;99.90
8537;DHT22;4306;50.210;10.628;2023-07-28T04:42:24;16.90;99.90
8537;DHT22;4306;50.210;10.628;2023-07-28T04:44:51;16.90;99.90
8537;DHT22;4306;50.210;10.628;2023-07-28T04:47:17;16.90;99.90
8537;DHT22;4306;50.210;10.628;2023-07-28T04:49:44;17.00;99.90
8537;DHT22;4306;50.210;10.628;2023-07-28T04:52:11;17.00;99.90
8537;DHT22;4306;50.210;10.628;2023-07-28T04:54:40;17.00;99.90
8537;DHT22;4306;50.210;10.628;2023-07-28T04:57:06;17.00;99.90
8537;DHT22;4306;50.210;10.628;2023-07-28T04:59:33;17.00;99.90
8537;DHT22;4306;50.210;10.628;2023-07-28T05:02:00;17.00;99.90
8537;DHT22;4306;50.210;10.628;2023-07-28T05:04:27;17.10;99.90
8537;DHT22;4306;50.210;10.628;2023-07-28T05:06:54;17.10;99.90
8537;DHT22;4306;50.210;10.628;2023-07-28T05:09:21;17.10;99.90
8537;DHT22;4306;50.210;10.628;2023-07-28T05:11:49;17.10;99.90
8537;DHT22;4306;50.210;10.628;2023-07-28T05:14:16;17.20;99.90
8537;DHT22;4306;50.210;10.628;2023-07-28T05:16:43;17.20;99.90
8537;DHT22;4306;50.210;10.628;2023-07-28T05:19:11;17.20;99.90
8537;DHT22;4306;50.210;10.628;2023-07-28T05:21:38;17.20;99.90
8537;DHT22;4306;50.210;10.628;2023-07-28T05:24:05;17.20;99.90
8537;DHT22;4306;50.210;10.628;2023-07-28T05:26:32;17.20;99.90
8537;DHT22;4306;50.210;10.628;2023-07-28T05:29:00;17.20;99.90
8537;DHT22;4306;50.210;10.628;2023-07-28T05:31:27;17.30;99.90
8537;DHT22;4306;50.210;10.628;2023-07-28T05:33:54;17.30;99.90
8537;DHT22;4306;50.210;10.628;2023-07-28T05:36:21;17.30;99.90
8537;DHT22;4306;50.210;10.628;2023-07-28T05:38:47;17.40;99.90
8537;DHT22;4306;50.210;10.628;2023-07-28T05:41:15;17.40;99.90
8537;DHT22;4306;50.210;10.628;2023-07-28T05:43:42;17.30;99.90
8537;DHT22;4306;50.210;10.628;2023-07-28T05:46:10;17.40;99.90
8537;DHT22;4306;50.210;10.628;2023-07-28T05:48:37;17.40;99.90
8537;DHT22;4306;50.210;10.628;2023-07-28T05:51:04;17.40;99.90
8537;DHT22;4306;50.210;10.628;2023-07-28T05:53:31;17.40;99.90
8537;DHT22;4306;50.210;10.628;2023-07-28T05:55:58;17.40;99.90
8537;DHT22;4306;50.210;10.628;2023-07-28T05:58:25;17.40;99.90
8537;DHT22;4306;50.210;10.628;2023-07-28T06:00:51;17.40;99.90
8537;DHT22;4306;50.210;10.628;2023-07-28T06:03:20;17.40;99.90
8537;DHT22;4306;50.210;10.628;2023-07-28T06:05:47;17.40;99.90
8537;DHT22;4306;50.210;10.628;2023-07-28T06:08:13;17.40;99.90
8537;DHT22;4306;50.210;10.628;2023-07-28T06:10:40;17.50;99.90
8537;DHT22;4306;50.210;10.628;2023-07-28T06:13:07;17.50;99.90
8537;DHT22;4306;50.210;10.628;2023-07-28T06:15:34;17.50;99.90
8537;DHT22;4306;50.210;10.628;2023-07-28T06:18:02;17.60;99.90
8537;DHT22;4306;50.210;10.628;2023-07-28T06:20:30;17.50;99.90
8537;DHT22;4306;50.210;10.628;2023-07-28T06:22:57;17.60;99.90
8537;DHT22;4306;50.210;10.628;2023-07-28T06:25:24;17.60;99.90
8537;DHT22;4306;50.210;10.628;2023-07-28T06:27:51;17.70;99.90
8537;DHT22;4306;50.210;10.628;2023-07-28T06:30:18;17.70;99.90
8537;DHT22;4306;50.210;10.628;2023-07-28T06:32:45;17.80;99.90
8537;DHT22;4306;50.210;10.628;2023-07-28T06:35:12;17.80;99.90
8537;DHT22;4306;50.210;10.628;2023-07-28T06:37:40;17.90;99.90
8537;DHT22;4306;50.210;10.628;2023-07-28T06:40:09;18.00;99.90
8537;DHT22;4306;50.210;10.628;2023-07-28T06:42:54;18.10;99.90
8537;DHT22;4306;50.210;10.628;2023-07-28T06:45:21;18.20;99.90
8537;DHT22;4306;50.210;10.628;2023-07-28T06:47:48;18.30;99.90
8537;DHT22;4306;50.210;10.628;2023-07-28T06:50:15;18.30;99.90
8537;DHT22;4306;50.210;10.628;2023-07-28T06:52:43;18.50;99.90
8537;DHT22;4306;50.210;10.628;2023-07-28T06:55:10;18.50;99.90
8537;DHT22;4306;50.210;10.628;2023-07-28T06:57:37;18.60;99.90
8537;DHT22;4306;50.210;10.628;2023-07-28T07:00:04;18.70;99.90
8537;DHT22;4306;50.210;10.628;2023-07-28T07:02:34;18.80;99.90
8537;DHT22;4306;50.210;10.628;2023-07-28T07:05:01;18.80;99.90
8537;DHT22;4306;50.210;10.628;2023-07-28T07:07:28;18.90;99.90
8537;DHT22;4306;50.210;10.628;2023-07-28T07:09:57;18.90;99.90
8537;DHT22;4306;50.210;10.628;2023-07-28T07:12:24;18.90;99.90
8537;DHT22;4306;50.210;10.628;2023-07-28T07:14:51;18.90;99.90
8537;DHT22;4306;50.210;10.628;2023-07-28T07:17:17;18.80;99.90
8537;DHT22;4306;50.210;10.628;2023-07-28T07:19:44;18.80;99.90
8537;DHT22;4306;50.210;10.628;2023-07-28T07:22:11;18.70;99.90
8537;DHT22;4306;50.210;10.628;2023-07-28T07:24:38;18.70;99.90
8537;DHT22;4306;50.210;10.628;2023-07-28T07:27:06;18.70;99.90
8537;DHT22;4306;50.210;10.628;2023-07-28T07:29:36;18.80;99.90
8537;DHT22;4306;50.210;10.628;2023-07-28T07:32:04;18.70;99.90
8537;DHT22;4306;50.210;10.628;2023-07-28T07:34:32;18.70;99.90
8537;DHT22;4306;50.210;10.628;2023-07-28T07:36:59;18.70;99.90
8537;DHT22;4306;50.210;10.628;2023-07-28T07:39:26;18.80;99.90
8537;DHT22;4306;50.210;10.628;2023-07-28T07:41:53;18.90;99.90
8537;DHT22;4306;50.210;10.628;2023-07-28T07:44:21;18.90;99.90
8537;DHT22;4306;50.210;10.628;2023-07-28T07:46:49;19.10;99.90
8537;DHT22;4306;50.210;10.628;2023-07-28T07:49:16;19.20;99.90
8537;DHT22;4306;50.210;10.628;2023-07-28T07:51:43;19.20;99.90
8537;DHT22;4306;50.210;10.628;2023-07-28T07:54:10;19.30;99.90
8537;DHT22;4306;50.210;10.628;2023-07-28T07:56:41;19.50;99.90
8537;DHT22;4306;50.210;10.628;2023-07-28T07:59:08;19.60;99.90
8537;DHT22;4306;50.210;10.628;2023-07-28T08:01:36;19.70;99.90
8537;DHT22;4306;50.210;10.628;2023-07-28T08:04:03;19.80;99.90
8537;DHT22;4306;50.210;10.628;2023-07-28T08:06:30;19.80;99.90
8537;DHT22;4306;50.210;10.628;2023-07-28T08:08:56;19.80;99.90
8537;DHT22;4306;50.210;10.628;2023-07-28T08:11:25;19.90;99.90
8537;DHT22;4306;50.210;10.628;2023-07-28T08:13:52;20.00;99.90
8537;DHT22;4306;50.210;10.628;2023-07-28T08:16:19;20.10;99.90
8537;DHT22;4306;50.210;10.628;2023-07-28T08:18:47;20.20;99.90
8537;DHT22;4306;50.210;10.628;2023-07-28T08:21:14;20.20;99.90
8537;DHT22;4306;50.210;10.628;2023-07-28T08:23:40;20.30;99.90
8537;DHT22;4306;50.210;10.628;2023-07-28T08:26:07;20.30;99.90
8537;DHT22;4306;50.210;10.628;2023-07-28T08:28:34;20.40;99.90
8537;DHT22;4306;50.210;10.628;2023-07-28T08:31:01;20.40;99.90
8537;DHT22;4306;50.210;10.628;2023-07-28T08:33:29;20.40;99.90
8537;DHT22;4306;50.210;10.628;2023-07-28T08:35:57;20.50;99.90
8537;DHT22;4306;50.210;10.628;2023-07-28T08:38:24;20.50;99.90
8537;DHT22;4306;50.210;10.628;2023-07-28T08:40:51;20.40;99.90
8537;DHT22;4306;50.210;10.628;2023-07-28T08:43:18;20.40;99.90
8537;DHT22;4306;50.210;10.628;2023-07-28T08:45:45;20.40;99.90
8537;DHT22;4306;50.210;10.628;2023-07-28T08:48:11;20.30;99.90
8537;DHT22;4306;50.210;10.628;2023-07-28T08:50:39;20.30;99.90
8537;DHT22;4306;50.210;10.628;2023-07-28T08:53:08;20.20;99.90
8537;DHT22;4306;50.210;10.628;2023-07-28T08:55:35;20.30;99.90
8537;DHT22;4306;50.210;10.628;2023-07-28T08:58:16;20.40;99.90
8537;DHT22;4306;50.210;10.628;2023-07-28T09:00:43;20.30;99.90
8537;DHT22;4306;50.210;10.628;2023-07-28T09:03:10;20.40;99.90
8537;DHT22;4306;50.210;10.628;2023-07-28T09:05:37;20.40;99.90
8537;DHT22;4306;50.210;10.628;2023-07-28T09:08:07;20.50;99.90
8537;DHT22;4306;50.210;10.628;2023-07-28T09:10:41;20.50;99.90
8537;DHT22;4306;50.210;10.628;2023-07-28T09:13:09;20.60;99.90
8537;DHT22;4306;50.210;10.628;2023-07-28T09:15:36;20.60;99.90
8537;DHT22;4306;50.210;10.628;2023-07-28T09:18:03;20.70;99.90
8537;DHT22;4306;50.210;10.628;2023-07-28T09:20:34;21.00;99.90
8537;DHT22;4306;50.210;10.628;2023-07-28T09:23:02;21.20;99.90
8537;DHT22;4306;50.210;10.628;2023-07-28T09:25:31;21.30;99.90
8537;DHT22;4306;50.210;10.628;2023-07-28T09:27:59;21.40;99.90
8537;DHT22;4306;50.210;10.628;2023-07-28T09:30:26;21.50;99.90
8537;DHT22;4306;50.210;10.628;2023-07-28T09:32:54;21.60;99.90
8537;DHT22;4306;50.210;10.628;2023-07-28T09:35:22;21.70;99.90
8537;DHT22;4306;50.210;10.628;2023-07-28T09:37:50;21.70;99.90
8537;DHT22;4306;50.210;10.628;2023-07-28T09:40:20;21.40;99.90
8537;DHT22;4306;50.210;10.628;2023-07-28T09:42:49;21.20;99.90
8537;DHT22;4306;50.210;10.628;2023-07-28T09:45:17;21.30;99.90
8537;DHT22;4306;50.210;10.628;2023-07-28T09:47:45;21.40;99.90
8537;DHT22;4306;50.210;10.628;2023-07-28T09:50:15;21.60;99.90
8537;DHT22;4306;50.210;10.628;2023-07-28T09:52:43;21.50;99.90
8537;DHT22;4306;50.210;10.628;2023-07-28T09:55:12;21.60;99.90
8537;DHT22;4306;50.210;10.628;2023-07-28T09:57:45;21.70;99.90
8537;DHT22;4306;50.210;10.628;2023-07-28T10:00:14;21.60;99.90
8537;DHT22;4306;50.210;10.628;2023-07-28T10:02:41;21.40;99.90
8537;DHT22;4306;50.210;10.628;2023-07-28T10:05:08;21.60;99.90
8537;DHT22;4306;50.210;10.628;2023-07-28T10:07:37;21.70;99.90
8537;DHT22;4306;50.210;10.628;2023-07-28T10:10:06;21.60;99.90
8537;DHT22;4306;50.210;10.628;2023-07-28T10:12:40;21.70;99.90
8537;DHT22;4306;50.210;10.628;2023-07-28T10:15:15;21.70;99.90
8537;DHT22;4306;50.210;10.628;2023-07-28T10:17:46;21.60;99.90
8537;DHT22;4306;50.210;10.628;2023-07-28T10:20:34;21.70;99.90
8537;DHT22;4306;50.210;10.628;2023-07-28T10:23:05;21.70;99.90
8537;DHT22;4306;50.210;10.628;2023-07-28T10:25:36;21.70;99.90
8537;DHT22;4306;50.210;10.628;2023-07-28T10:28:05;21.80;99.90
8537;DHT22;4306;50.210;10.628;2023-07-28T10:30:40;21.80;99.90
8537;DHT22;4306;50.210;10.628;2023-07-28T10:33:27;21.60;99.90
8537;DHT22;4306;50.210;10.628;2023-07-28T10:35:54;21.50;99.90
8537;DHT22;4306;50.210;10.628;2023-07-28T10:38:30;21.60;99.90
8537;DHT22;4306;50.210;10.628;2023-07-28T10:41:08;21.70;99.90
8537;DHT22;4306;50.210;10.628;2023-07-28T10:43:35;21.70;99.90
8537;DHT22;4306;50.210;10.628;2023-07-28T10:46:04;21.70;99.90
8537;DHT22;4306;50.210;10.628;2023-07-28T10:48:31;21.70;99.90
8537;DHT22;4306;50.210;10.628;2023-07-28T10:50:58;21.70;99.90
8537;DHT22;4306;50.210;10.628;2023-07-28T10:53:26;21.80;99.90
8537;DHT22;4306;50.210;10.628;2023-07-28T10:55:53;21.90;99.90
8537;DHT22;4306;50.210;10.628;2023-07-28T10:58:20;21.90;99.90
8537;DHT22;4306;50.210;10.628;2023-07-28T11:00:46;22.00;99.90
8537;DHT22;4306;50.210;10.628;2023-07-28T11:03:15;21.90;99.90
8537;DHT22;4306;50.210;10.628;2023-07-28T11:05:41;21.80;99.90
8537;DHT22;4306;50.210;10.628;2023-07-28T11:08:09;21.80;99.90
8537;DHT22;4306;50.210;10.628;2023-07-28T11:10:37;21.70;99.90
8537;DHT22;4306;50.210;10.628;2023-07-28T11:13:06;21.70;99.90
8537;DHT22;4306;50.210;10.628;2023-07-28T11:15:33;21.50;99.90
8537;DHT22;4306;50.210;10.628;2023-07-28T11:18:00;21.30;99.90
8537;DHT22;4306;50.210;10.628;2023-07-28T11:20:30;21.30;99.90
8537;DHT22;4306;50.210;10.628;2023-07-28T11:22:59;21.40;99.90
8537;DHT22;4306;50.210;10.628;2023-07-28T11:25:27;21.50;99.90
8537;DHT22;4306;50.210;10.628;2023-07-28T11:27:54;21.40;99.90
8537;DHT22;4306;50.210;10.628;2023-07-28T11:30:22;21.40;99.90
8537;DHT22;4306;50.210;10.628;2023-07-28T11:32:51;21.60;99.90
8537;DHT22;4306;50.210;10.628;2023-07-28T11:35:19;21.70;99.90
8537;DHT22;4306;50.210;10.628;2023-07-28T11:37:49;21.80;99.90
8537;DHT22;4306;50.210;10.628;2023-07-28T11:40:18;21.80;99.90
8537;DHT22;4306;50.210;10.628;2023-07-28T11:42:46;21.80;99.90
8537;DHT22;4306;50.210;10.628;2023-07-28T11:45:16;21.90;99.90
8537;DHT22;4306;50.210;10.628;2023-07-28T11:47:54;22.00;99.90
8537;DHT22;4306;50.210;10.628;2023-07-28T11:50:26;22.00;99.90
8537;DHT22;4306;50.210;10.628;2023-07-28T11:52:55;22.00;99.90
8537;DHT22;4306;50.210;10.628;2023-07-28T11:55:22;22.00;99.90
8537;DHT22;4306;50.210;10.628;2023-07-28T11:57:50;22.00;99.90
8537;DHT22;4306;50.210;10.628;2023-07-28T12:00:17;21.80;99.90
8537;DHT22;4306;50.210;10.628;2023-07-28T12:03:00;21.80;99.90
8537;DHT22;4306;50.210;10.628;2023-07-28T12:05:29;21.60;99.90
8537;DHT22;4306;50.210;10.628;2023-07-28T12:07:57;21.60;99.90
8537;DHT22;4306;50.210;10.628;2023-07-28T12:10:24;21.70;99.90
8537;DHT22;4306;50.210;10.628;2023-07-28T12:12:51;22.00;99.90
8537;DHT22;4306;50.210;10.628;2023-07-28T12:15:20;22.30;99.90
8537;DHT22;4306;50.210;10.628;2023-07-28T12:18:02;22.40;99.90
8537;DHT22;4306;50.210;10.628;2023-07-28T12:20:33;22.60;99.90
8537;DHT22;4306;50.210;10.628;2023-07-28T12:23:02;22.60;99.90
8537;DHT22;4306;50.210;10.628;2023-07-28T12:25:30;22.70;99.90
8537;DHT22;4306;50.210;10.628;2023-07-28T12:27:57;22.80;99.90
8537;DHT22;4306;50.210;10.628;2023-07-28T12:30:24;22.90;99.90
8537;DHT22;4306;50.210;10.628;2023-07-28T12:32:51;22.90;99.90
8537;DHT22;4306;50.210;10.628;2023-07-28T12:35:18;23.00;99.90
8537;DHT22;4306;50.210;10.628;2023-07-28T12:37:46;23.10;99.90
8537;DHT22;4306;50.210;10.628;2023-07-28T12:40:14;23.30;99.90
8537;DHT22;4306;50.210;10.628;2023-07-28T12:42:41;23.40;99.90
8537;DHT22;4306;50.210;10.628;2023-07-28T12:45:09;23.60;99.90
8537;DHT22;4306;50.210;10.628;2023-07-28T12:47:36;23.70;99.90
8537;DHT22;4306;50.210;10.628;2023-07-28T12:50:04;23.70;99.90
8537;DHT22;4306;50.210;10.628;2023-07-28T12:52:32;23.80;99.90
8537;DHT22;4306;50.210;10.628;2023-07-28T12:54:59;23.90;99.90
8537;DHT22;4306;50.210;10.628;2023-07-28T12:57:27;23.80;99.90
8537;DHT22;4306;50.210;10.628;2023-07-28T12:59:54;23.50;99.90
8537;DHT22;4306;50.210;10.628;2023-07-28T13:02:21;23.60;99.90
8537;DHT22;4306;50.210;10.628;2023-07-28T13:04:48;23.50;99.90
8537;DHT22;4306;50.210;10.628;2023-07-28T13:07:15;23.40;99.90
8537;DHT22;4306;50.210;10.628;2023-07-28T13:09:43;23.30;99.90
8537;DHT22;4306;50.210;10.628;2023-07-28T13:12:11;23.30;99.90
8537;DHT22;4306;50.210;10.628;2023-07-28T13:14:39;23.40;99.90
8537;DHT22;4306;50.210;10.628;2023-07-28T13:17:06;23.50;99.90
8537;DHT22;4306;50.210;10.628;2023-07-28T13:19:33;23.60;99.90
8537;DHT22;4306;50.210;10.628;2023-07-28T13:22:00;23.80;99.90
8537;DHT22;4306;50.210;10.628;2023-07-28T13:24:27;23.90;99.90
8537;DHT22;4306;50.210;10.628;2023-07-28T13:26:54;24.10;99.90
8537;DHT22;4306;50.210;10.628;2023-07-28T13:29:21;24.10;99.90
8537;DHT22;4306;50.210;10.628;2023-07-28T13:31:49;24.20;99.90
8537;DHT22;4306;50.210;10.628;2023-07-28T13:34:16;24.00;99.90
8537;DHT22;4306;50.210;10.628;2023-07-28T13:36:43;23.80;99.90
8537;DHT22;4306;50.210;10.628;2023-07-28T13:39:10;24.00;99.90
8537;DHT22;4306;50.210;10.628;2023-07-28T13:41:37;24.10;99.90
8537;DHT22;4306;50.210;10.628;2023-07-28T13:44:04;24.10;99.90
8537;DHT22;4306;50.210;10.628;2023-07-28T13:46:31;24.00;99.90
8537;DHT22;4306;50.210;10.628;2023-07-28T13:48:59;24.10;99.90
8537;DHT22;4306;50.210;10.628;2023-07-28T13:51:26;24.30;99.90
8537;DHT22;4306;50.210;10.628;2023-07-28T13:53:53;24.50;99.90
8537;DHT22;4306;50.210;10.628;2023-07-28T13:56:20;24.50;99.90
8537;DHT22;4306;50.210;10.628;2023-07-28T13:58:47;24.40;99.90
8537;DHT22;4306;50.210;10.628;2023-07-28T14:01:14;24.30;99.90
8537;DHT22;4306;50.210;10.628;2023-07-28T14:03:41;24.10;99.90
8537;DHT22;4306;50.210;10.628;2023-07-28T14:06:09;24.00;99.90
8537;DHT22;4306;50.210;10.628;2023-07-28T14:08:36;23.90;99.90
8537;DHT22;4306;50.210;10.628;2023-07-28T14:11:03;23.40;99.90
8537;DHT22;4306;50.210;10.628;2023-07-28T14:13:30;23.30;99.90
8537;DHT22;4306;50.210;10.628;2023-07-28T14:15:58;23.50;99.90
8537;DHT22;4306;50.210;10.628;2023-07-28T14:18:25;23.70;99.90
8537;DHT22;4306;50.210;10.628;2023-07-28T14:20:52;23.80;99.90
8537;DHT22;4306;50.210;10.628;2023-07-28T14:23:25;23.80;99.90
8537;DHT22;4306;50.210;10.628;2023-07-28T14:25:52;24.00;99.90
8537;DHT22;4306;50.210;10.628;2023-07-28T14:28:20;24.00;99.90
8537;DHT22;4306;50.210;10.628;2023-07-28T14:30:47;24.10;99.90
8537;DHT22;4306;50.210;10.628;2023-07-28T14:33:14;24.20;99.90
8537;DHT22;4306;50.210;10.628;2023-07-28T14:35:42;24.00;99.90
8537;DHT22;4306;50.210;10.628;2023-07-28T14:38:09;23.90;99.90
8537;DHT22;4306;50.210;10.628;2023-07-28T14:40:38;23.90;99.90
8537;DHT22;4306;50.210;10.628;2023-07-28T14:43:05;24.00;99.90
8537;DHT22;4306;50.210;10.628;2023-07-28T14:45:32;24.00;99.90
8537;DHT22;4306;50.210;10.628;2023-07-28T14:48:01;24.10;99.90
8537;DHT22;4306;50.210;10.628;2023-07-28T14:50:28;24.00;99.90
8537;DHT22;4306;50.210;10.628;2023-07-28T14:52:57;23.80;99.90
8537;DHT22;4306;50.210;10.628;2023-07-28T14:55:24;23.90;99.90
8537;DHT22;4306;50.210;10.628;2023-07-28T14:57:53;23.90;99.90
8537;DHT22;4306;50.210;10.628;2023-07-28T15:00:20;24.00;99.90
8537;DHT22;4306;50.210;10.628;2023-07-28T15:02:46;24.00;99.90
8537;DHT22;4306;50.210;10.628;2023-07-28T15:05:13;24.00;99.90
8537;DHT22;4306;50.210;10.628;2023-07-28T15:07:41;24.00;99.90
8537;DHT22;4306;50.210;10.628;2023-07-28T15:10:08;24.00;99.90
8537;DHT22;4306;50.210;10.628;2023-07-28T15:12:35;24.10;99.90
8537;DHT22;4306;50.210;10.628;2023-07-28T15:15:04;23.90;99.90
8537;DHT22;4306;50.210;10.628;2023-07-28T15:17:32;23.70;99.90
8537;DHT22;4306;50.210;10.628;2023-07-28T15:19:59;23.70;99.90
8537;DHT22;4306;50.210;10.628;2023-07-28T15:22:26;23.70;99.90
8537;DHT22;4306;50.210;10.628;2023-07-28T15:25:14;23.90;99.90
8537;DHT22;4306;50.210;10.628;2023-07-28T15:31:30;24.20;99.90
8537;DHT22;4306;50.210;10.628;2023-07-28T15:33:57;24.20;99.90
8537;DHT22;4306;50.210;10.628;2023-07-28T15:36:24;24.20;99.90
8537;DHT22;4306;50.210;10.628;2023-07-28T15:38:51;24.20;99.90
8537;DHT22;4306;50.210;10.628;2023-07-28T15:41:18;24.20;99.90
8537;DHT22;4306;50.210;10.628;2023-07-28T15:43:45;24.20;99.90
8537;DHT22;4306;50.210;10.628;2023-07-28T15:46:12;24.10;99.90
8537;DHT22;4306;50.210;10.628;2023-07-28T15:48:40;24.10;99.90
8537;DHT22;4306;50.210;10.628;2023-07-28T15:51:07;24.10;99.90
8537;DHT22;4306;50.210;10.628;2023-07-28T15:53:34;24.10;99.90